Time;durP1;ratioP1;P1;durP2;ratioP2;P2;SDS_P1;SDS_P2;PMS_P1;PMS_P2;Temp;Humidity;BMP_temperature;BMP_pressure;BME280_temperature;BME280_humidity;BME280_pressure;Samples;Min_cycle;Max_cycle;Signal;HPM_P1;HPM_P2
2022/03/21 00:01:11;;;;;;;4.18;2.10;;;4.20;99.90;;;;;;4956938;28;20114;-69
2022/03/21 00:03:37;;;;;;;8.02;5.45;;;4.20;99.90;;;;;;4960861;28;20062;-68
2022/03/21 00:06:03;;;;;;;12.48;9.30;;;4.30;99.90;;;;;;4948983;28;20468;-69
2022/03/21 00:08:29;;;;;;;2.30;2.13;;;4.20;99.90;;;;;;4968296;28;20133;-69
2022/03/21 00:10:56;;;;;;;9.35;5.10;;;4.30;99.90;;;;;;4978128;28;20406;-69
2022/03/21 00:13:22;;;;;;;9.27;5.40;;;4.40;99.90;;;;;;4950808;28;20062;-69
2022/03/21 00:15:50;;;;;;;2.15;2.05;;;4.30;99.90;;;;;;4950282;28;20153;-69
2022/03/21 00:18:16;;;;;;;4.60;3.92;;;4.40;99.90;;;;;;4949814;28;20054;-68
2022/03/21 00:20:43;;;;;;;1.17;1.15;;;4.40;99.90;;;;;;4960452;28;20135;-69
2022/03/21 00:23:09;;;;;;;5.57;4.40;;;4.30;99.90;;;;;;4962930;28;20043;-69
2022/03/21 00:25:35;;;;;;;11.45;8.02;;;4.30;99.90;;;;;;4971688;28;20105;-71
2022/03/21 00:28:06;;;;;;;18.42;10.15;;;4.20;99.90;;;;;;4975997;28;20576;-71
2022/03/21 00:30:32;;;;;;;1.58;1.48;;;4.20;99.90;;;;;;4947918;28;20044;-72
2022/03/21 00:32:58;;;;;;;5.68;5.28;;;4.10;99.90;;;;;;4971990;28;20422;-71
2022/03/21 00:35:24;;;;;;;5.18;3.40;;;4.10;99.90;;;;;;4996651;28;20048;-71
2022/03/21 00:37:50;;;;;;;6.53;5.90;;;4.00;99.90;;;;;;4971460;28;20139;-71
2022/03/21 00:40:17;;;;;;;1.98;1.88;;;3.90;99.90;;;;;;4981236;28;20403;-71
2022/03/21 00:45:58;;;;;;;1.90;1.80;;;3.90;99.90;;;;;;4914158;28;20144;-70
2022/03/21 00:48:45;;;;;;;3.35;3.05;;;3.80;99.90;;;;;;4889494;28;20046;-68
2022/03/21 00:51:23;;;;;;;4.30;4.00;;;3.70;99.90;;;;;;4898483;28;20367;-71
2022/03/21 00:53:49;;;;;;;2.92;2.72;;;3.70;99.90;;;;;;4915845;28;20088;-71
2022/03/21 00:56:17;;;;;;;7.18;5.53;;;3.70;99.90;;;;;;4900882;28;20066;-71
2022/03/21 00:58:55;;;;;;;6.28;5.40;;;3.60;99.90;;;;;;4909630;28;20739;-71
2022/03/21 01:01:21;;;;;;;4.90;4.45;;;3.60;99.90;;;;;;4931038;28;20356;-69
2022/03/21 01:03:47;;;;;;;1.95;1.85;;;3.60;99.90;;;;;;4962215;28;20054;-68
2022/03/21 01:06:12;;;;;;;3.92;3.45;;;3.60;99.90;;;;;;4986737;28;20034;-68
2022/03/21 01:08:38;;;;;;;8.68;4.43;;;3.60;99.90;;;;;;4972155;28;20468;-68
2022/03/21 01:11:03;;;;;;;4.70;4.30;;;3.60;99.90;;;;;;4970151;28;20046;-68
2022/03/21 01:13:29;;;;;;;2.67;2.33;;;3.60;99.90;;;;;;4956039;28;20073;-68
2022/03/21 01:15:54;;;;;;;3.92;3.63;;;3.60;99.90;;;;;;4971417;28;20053;-69
2022/03/21 01:18:22;;;;;;;2.53;2.13;;;3.60;99.90;;;;;;4969879;28;20089;-69
2022/03/21 01:20:48;;;;;;;1.80;1.70;;;3.60;99.90;;;;;;4968928;28;20465;-69
2022/03/21 01:23:14;;;;;;;3.25;3.00;;;3.50;99.90;;;;;;5018375;28;20131;-69
2022/03/21 01:25:40;;;;;;;9.98;5.38;;;3.50;99.90;;;;;;5050893;28;20058;-68
2022/03/21 01:28:05;;;;;;;7.32;5.68;;;3.50;99.90;;;;;;5048846;28;20403;-69
2022/03/21 01:30:31;;;;;;;15.88;5.88;;;3.50;99.90;;;;;;5034259;28;20040;-68
2022/03/21 01:32:56;;;;;;;5.28;2.85;;;3.50;99.90;;;;;;5034390;28;20044;-69
2022/03/21 01:35:22;;;;;;;1.08;1.08;;;3.40;99.90;;;;;;5031201;28;20127;-69
2022/03/21 01:37:54;;;;;;;0.50;0.50;;;3.40;99.90;;;;;;4995948;28;20123;-69
2022/03/21 01:40:20;;;;;;;1.27;1.23;;;3.40;99.90;;;;;;5006615;28;20061;-69
2022/03/21 01:43:13;;;;;;;2.17;2.08;;;3.30;99.90;;;;;;4966534;28;20107;-69
2022/03/21 01:45:41;;;;;;;;;;;3.30;99.90;;;;;;4881157;28;20054;-69
2022/03/21 01:48:40;;;;;;;3.50;3.25;;;3.30;99.90;;;;;;4882702;28;20080;-70
2022/03/21 01:51:06;;;;;;;3.28;2.97;;;3.30;99.90;;;;;;4897766;28;20070;-68
2022/03/21 01:56:34;;;;;;;4.03;3.35;;;3.30;99.90;;;;;;4872012;29;20055;-69
2022/03/21 01:59:00;;;;;;;7.38;4.30;;;3.20;99.90;;;;;;4838645;29;20466;-71
2022/03/21 02:01:25;;;;;;;8.50;4.32;;;3.10;99.90;;;;;;4873318;28;20473;-70
2022/03/21 02:03:54;;;;;;;6.13;4.70;;;3.10;99.90;;;;;;4815718;29;20122;-70
2022/03/21 02:06:25;;;;;;;4.75;4.35;;;3.00;99.90;;;;;;4858635;29;20507;-70
2022/03/21 02:12:17;;;;;;;20.23;8.20;;;3.00;99.90;;;;;;4782884;29;20126;-71
2022/03/21 02:14:48;;;;;;;2.00;1.92;;;3.10;99.90;;;;;;4756609;29;20794;-69
2022/03/21 02:17:19;;;;;;;0.95;0.95;;;3.20;99.90;;;;;;4759051;29;20068;-69
2022/03/21 02:19:45;;;;;;;2.28;2.08;;;3.20;99.90;;;;;;4761785;29;20060;-70
2022/03/21 02:22:42;;;;;;;8.32;5.55;;;3.20;99.90;;;;;;4763138;29;20053;-69
2022/03/21 02:26:10;;;;;;;1.25;1.25;;;3.30;99.90;;;;;;4778992;29;20482;-69
2022/03/21 02:28:37;;;;;;;0.80;0.80;;;3.30;99.90;;;;;;4766673;29;20061;-69
2022/03/21 02:31:04;;;;;;;0.60;0.60;;;3.20;99.90;;;;;;4755037;29;20060;-69
2022/03/21 02:33:29;;;;;;;1.42;1.33;;;3.10;99.90;;;;;;4754986;29;20902;-69
2022/03/21 02:35:57;;;;;;;0.50;0.50;;;3.10;99.90;;;;;;4742661;29;20572;-69
2022/03/21 02:38:26;;;;;;;1.00;0.95;;;3.00;99.90;;;;;;4779404;29;20100;-69
2022/03/21 02:40:53;;;;;;;2.70;2.17;;;3.00;99.90;;;;;;4774066;29;20204;-69
2022/03/21 02:43:18;;;;;;;0.50;0.50;;;2.90;99.90;;;;;;4757047;29;20053;-69
2022/03/21 02:46:20;;;;;;;0.43;0.43;;;2.90;99.90;;;;;;4785526;29;20639;-69
2022/03/21 02:52:22;;;;;;;0.93;0.93;;;2.80;99.90;;;;;;4848200;29;20458;-70
2022/03/21 02:54:48;;;;;;;2.63;2.42;;;2.70;99.90;;;;;;4836047;29;20586;-69
2022/03/21 02:57:16;;;;;;;1.60;1.50;;;2.80;99.90;;;;;;4809171;29;20066;-69
2022/03/21 02:59:45;;;;;;;3.85;3.58;;;2.80;99.90;;;;;;4849879;29;21497;-69
2022/03/21 03:03:00;;;;;;;0.98;0.98;;;2.90;99.90;;;;;;4820425;29;20062;-70
2022/03/21 03:05:26;;;;;;;2.05;1.95;;;3.00;99.90;;;;;;4839085;28;20058;-70
2022/03/21 03:07:52;;;;;;;2.75;2.30;;;3.00;99.90;;;;;;4879047;28;20469;-70
2022/03/21 03:10:17;;;;;;;2.10;1.95;;;2.90;99.90;;;;;;4915928;28;20136;-71
2022/03/21 03:12:43;;;;;;;2.47;1.88;;;2.80;99.90;;;;;;4910741;28;20558;-69
2022/03/21 03:15:09;;;;;;;3.55;3.15;;;2.80;99.90;;;;;;4943493;28;20097;-69
2022/03/21 03:17:34;;;;;;;12.95;4.68;;;2.70;99.90;;;;;;4922577;28;20062;-70
2022/03/21 03:20:44;;;;;;;5.32;2.90;;;2.70;99.90;;;;;;4903301;28;20085;-69
2022/03/21 03:23:12;;;;;;;2.83;2.63;;;2.60;99.90;;;;;;4889766;28;20137;-72
2022/03/21 03:25:41;;;;;;;0.63;0.63;;;2.60;99.90;;;;;;4906118;28;20966;-69
2022/03/21 03:28:06;;;;;;;3.92;2.08;;;2.50;99.90;;;;;;4862792;28;20811;-69
2022/03/21 03:30:58;;;;;;;3.40;3.03;;;2.60;99.90;;;;;;4862357;28;20762;-70
2022/03/21 03:33:24;;;;;;;1.52;1.42;;;2.60;99.90;;;;;;4865356;28;20570;-70
2022/03/21 03:35:49;;;;;;;5.03;4.13;;;2.70;99.90;;;;;;4873972;28;20137;-69
2022/03/21 03:38:16;;;;;;;1.75;1.50;;;2.70;99.90;;;;;;4873012;28;20047;-69
2022/03/21 03:40:43;;;;;;;2.63;2.42;;;2.60;99.90;;;;;;4879078;28;20272;-69
2022/03/21 03:43:10;;;;;;;1.88;1.77;;;2.70;99.90;;;;;;4880421;28;20058;-69
2022/03/21 03:46:01;;;;;;;1.33;1.23;;;2.70;99.90;;;;;;4897111;28;20080;-69
2022/03/21 03:48:38;;;;;;;0.75;0.73;;;2.70;99.90;;;;;;4858003;29;20176;-71
2022/03/21 03:51:04;;;;;;;0.70;0.70;;;2.70;99.90;;;;;;4832419;29;20170;-68
2022/03/21 03:53:30;;;;;;;2.38;2.20;;;2.70;99.90;;;;;;4843437;28;20471;-69
2022/03/21 03:56:01;;;;;;;3.75;1.48;;;2.60;99.90;;;;;;4854573;29;20597;-69
2022/03/21 03:58:27;;;;;;;0.50;0.50;;;2.50;99.90;;;;;;4839485;29;20879;-72
2022/03/21 04:03:47;;;;;;;0.80;0.80;;;2.50;99.90;;;;;;4920795;28;20065;-69
2022/03/21 04:09:33;;;;;;;1.13;1.13;;;2.40;99.90;;;;;;4890813;28;20054;-70
2022/03/21 04:11:59;;;;;;;0.50;0.50;;;2.40;99.90;;;;;;4878679;28;20054;-69
2022/03/21 04:15:15;;;;;;;0.50;0.50;;;2.40;99.90;;;;;;4892699;28;20505;-69
2022/03/21 04:17:40;;;;;;;0.50;0.50;;;2.40;99.90;;;;;;4770311;29;20556;-70
2022/03/21 04:20:12;;;;;;;0.47;0.47;;;2.40;99.90;;;;;;4785642;29;20061;-72
2022/03/21 04:22:38;;;;;;;6.57;6.15;;;2.30;99.90;;;;;;4763835;29;20556;-69
2022/03/21 04:25:28;;;;;;;0.50;0.50;;;2.30;99.90;;;;;;4797235;29;20473;-70
2022/03/21 04:27:57;;;;;;;0.50;0.50;;;2.30;99.90;;;;;;4794225;29;20095;-70
2022/03/21 04:30:23;;;;;;;0.40;0.40;;;2.30;99.90;;;;;;4803588;29;20061;-70
2022/03/21 04:32:49;;;;;;;0.80;0.80;;;2.40;99.90;;;;;;4775967;29;20464;-70
2022/03/21 04:35:15;;;;;;;0.77;0.77;;;2.40;99.90;;;;;;4802745;29;20064;-69
2022/03/21 04:37:44;;;;;;;1.95;1.67;;;2.40;99.90;;;;;;4797880;29;20639;-70
2022/03/21 04:40:10;;;;;;;0.65;0.65;;;2.40;99.90;;;;;;4786255;29;20049;-71
2022/03/21 04:43:04;;;;;;;0.55;0.55;;;2.40;99.90;;;;;;4794651;29;20506;-70
2022/03/21 04:45:40;;;;;;;0.65;0.65;;;2.50;99.90;;;;;;4788098;29;20076;-69
2022/03/21 04:48:06;;;;;;;0.60;0.60;;;2.40;99.90;;;;;;4830743;29;20061;-69
2022/03/21 04:50:34;;;;;;;4.13;2.72;;;2.40;99.90;;;;;;4799252;29;20053;-69
2022/03/21 04:53:02;;;;;;;0.88;0.88;;;2.40;99.90;;;;;;4753501;29;20311;-69
2022/03/21 04:58:58;;;;;;;0.50;0.50;;;2.30;99.90;;;;;;4793455;29;21028;-70
2022/03/21 05:01:23;;;;;;;0.50;0.50;;;2.20;99.90;;;;;;4754763;29;20128;-69
2022/03/21 05:03:56;;;;;;;0.50;0.50;;;2.20;99.90;;;;;;4788457;29;20509;-69
2022/03/21 05:06:22;;;;;;;0.50;0.50;;;2.20;99.90;;;;;;4862411;29;20051;-69
2022/03/21 05:09:24;;;;;;;0.40;0.40;;;2.10;99.90;;;;;;4870271;29;20520;-69
2022/03/21 05:14:50;;;;;;;0.40;0.40;;;2.00;99.90;;;;;;4843798;29;20056;-69
2022/03/21 05:17:19;;;;;;;0.40;0.40;;;2.10;99.90;;;;;;4856924;29;20492;-72
2022/03/21 05:20:32;;;;;;;1.40;1.38;;;2.00;99.90;;;;;;4824945;29;20521;-68
2022/03/21 05:31:44;;;;;;;0.70;0.70;;;2.00;99.90;;;;;;4851501;29;20616;-71
2022/03/21 05:37:36;;;;;;;4.00;1.95;;;1.80;99.90;;;;;;4921602;28;20473;-69
2022/03/21 05:40:35;;;;;;;0.65;0.65;;;1.80;99.90;;;;;;4926722;28;20665;-69
2022/03/21 05:43:02;;;;;;;0.90;0.90;;;1.80;99.90;;;;;;4915522;28;21102;-69
2022/03/21 05:45:28;;;;;;;0.73;0.73;;;1.80;99.90;;;;;;4900438;28;20129;-69
2022/03/21 05:50:51;;;;;;;0.50;0.50;;;1.80;99.90;;;;;;4922621;28;20385;-69
2022/03/21 05:53:19;;;;;;;0.50;0.50;;;1.70;99.90;;;;;;4911114;28;21956;-69
2022/03/21 05:56:21;;;;;;;1.48;1.48;;;1.70;99.90;;;;;;4922235;28;21100;-68
2022/03/21 05:58:47;;;;;;;0.40;0.40;;;1.50;99.90;;;;;;4845728;29;20182;-69
2022/03/21 06:01:21;;;;;;;0.40;0.40;;;1.40;99.90;;;;;;4837701;28;20568;-69
2022/03/21 06:04:25;;;;;;;0.98;0.98;;;1.40;99.90;;;;;;4833833;29;20075;-69
2022/03/21 06:06:55;;;;;;;0.55;0.55;;;1.30;99.90;;;;;;4795879;29;20765;-69
2022/03/21 06:09:20;;;;;;;0.50;0.50;;;1.20;99.90;;;;;;4782398;29;20797;-70
2022/03/21 06:11:49;;;;;;;1.50;1.40;;;1.10;99.90;;;;;;4799033;29;20292;-70
2022/03/21 06:14:20;;;;;;;1.42;1.33;;;1.10;99.90;;;;;;4784269;29;20663;-68
2022/03/21 06:16:55;;;;;;;0.50;0.50;;;1.00;99.90;;;;;;4771306;29;20064;-69
2022/03/21 06:19:25;;;;;;;0.55;0.55;;;1.00;99.90;;;;;;4755528;29;20056;-71
2022/03/21 06:21:51;;;;;;;0.68;0.68;;;1.00;99.90;;;;;;4777792;29;20090;-68
2022/03/21 06:24:18;;;;;;;0.57;0.57;;;1.10;99.90;;;;;;4798132;29;20317;-69
2022/03/21 06:26:50;;;;;;;0.93;0.93;;;1.20;99.90;;;;;;4782496;29;20174;-71
2022/03/21 06:29:41;;;;;;;0.82;0.82;;;1.40;99.90;;;;;;4777471;29;20675;-71
2022/03/21 06:32:11;;;;;;;0.65;0.65;;;1.50;99.90;;;;;;4904644;29;20462;-69
2022/03/21 06:34:37;;;;;;;2.00;1.90;;;1.70;99.90;;;;;;4898034;29;20128;-68
2022/03/21 06:37:05;;;;;;;0.55;0.55;;;1.70;99.90;;;;;;4947880;28;20141;-69
2022/03/21 06:39:30;;;;;;;0.60;0.60;;;1.80;99.90;;;;;;4956454;28;20050;-69
2022/03/21 06:41:56;;;;;;;1.15;1.15;;;1.90;99.90;;;;;;5010981;28;20057;-71
2022/03/21 06:44:21;;;;;;;0.80;0.80;;;2.00;99.90;;;;;;5027566;28;20037;-69
2022/03/21 06:46:47;;;;;;;0.50;0.50;;;2.20;99.90;;;;;;5027882;28;20526;-68
2022/03/21 06:49:15;;;;;;;2.58;1.45;;;2.30;99.90;;;;;;5016813;28;20048;-70
2022/03/21 06:51:41;;;;;;;1.75;1.65;;;2.50;99.90;;;;;;5023718;28;20041;-69
2022/03/21 06:54:07;;;;;;;0.50;0.50;;;2.60;99.90;;;;;;5004596;28;20375;-69
2022/03/21 06:56:32;;;;;;;0.43;0.43;;;2.80;99.90;;;;;;5036048;28;20048;-69
2022/03/21 06:58:58;;;;;;;0.60;0.60;;;3.00;99.90;;;;;;5007578;28;20107;-69
2022/03/21 07:01:24;;;;;;;0.50;0.50;;;3.20;99.90;;;;;;5021214;28;20069;-68
2022/03/21 07:03:50;;;;;;;0.32;0.32;;;3.20;99.90;;;;;;5027191;28;20092;-69
2022/03/21 07:06:15;;;;;;;0.73;0.73;;;3.30;99.90;;;;;;5018993;28;20065;-69
2022/03/21 07:08:41;;;;;;;0.50;0.50;;;3.40;99.90;;;;;;5006718;28;20104;-68
2022/03/21 07:11:12;;;;;;;0.95;0.95;;;3.50;99.90;;;;;;4999674;28;20049;-69
2022/03/21 07:13:38;;;;;;;2.95;1.80;;;3.50;99.90;;;;;;5007105;28;20057;-68
2022/03/21 07:16:04;;;;;;;1.98;1.75;;;3.60;99.90;;;;;;5029068;28;20049;-69
2022/03/21 07:18:29;;;;;;;1.27;1.20;;;3.70;99.90;;;;;;5028781;28;20599;-69
2022/03/21 07:20:55;;;;;;;4.15;2.22;;;3.80;99.90;;;;;;5034956;28;20047;-69
2022/03/21 07:23:21;;;;;;;4.30;3.95;;;3.90;99.90;;;;;;5033411;28;20049;-69
2022/03/21 07:25:47;;;;;;;9.05;1.75;;;4.10;99.90;;;;;;5043812;28;20136;-69
2022/03/21 07:28:12;;;;;;;1.58;1.48;;;4.20;99.90;;;;;;5044360;28;20095;-69
2022/03/21 07:30:38;;;;;;;9.57;5.97;;;4.40;99.90;;;;;;5060239;28;20041;-69
2022/03/21 07:33:04;;;;;;;2.08;1.95;;;4.50;99.90;;;;;;5047894;28;20087;-69
2022/03/21 07:35:30;;;;;;;1.63;1.35;;;4.70;99.90;;;;;;5021851;28;20041;-70
2022/03/21 07:40:46;;;;;;;0.95;0.95;;;4.90;99.90;;;;;;5022710;28;20046;-70
2022/03/21 07:43:12;;;;;;;1.27;1.25;;;5.00;99.90;;;;;;4981054;28;20099;-69
2022/03/21 07:48:23;;;;;;;3.50;2.85;;;5.30;99.90;;;;;;5006495;28;20365;-70
2022/03/21 07:50:49;;;;;;;4.47;4.05;;;5.60;99.90;;;;;;5007375;28;20049;-69
2022/03/21 07:53:15;;;;;;;4.35;3.65;;;5.80;99.90;;;;;;5006895;28;20052;-69
2022/03/21 07:55:40;;;;;;;3.97;3.05;;;5.90;99.90;;;;;;5008057;28;20072;-69
2022/03/21 07:58:06;;;;;;;1.67;1.58;;;5.90;99.90;;;;;;5022604;28;20224;-70
2022/03/21 08:00:32;;;;;;;2.85;2.65;;;6.00;99.90;;;;;;5007066;28;20379;-70
2022/03/21 08:02:58;;;;;;;8.63;5.88;;;6.20;99.90;;;;;;5001032;28;20048;-70
2022/03/21 08:05:26;;;;;;;2.10;1.98;;;6.30;99.90;;;;;;4931982;28;20337;-72
2022/03/21 08:07:52;;;;;;;2.70;2.17;;;6.50;99.90;;;;;;4934578;28;20060;-69
2022/03/21 08:10:21;;;;;;;2.47;2.25;;;6.70;99.90;;;;;;5018554;28;20037;-69
2022/03/21 08:12:47;;;;;;;4.82;3.67;;;7.00;99.90;;;;;;4997519;28;20085;-69
2022/03/21 08:15:14;;;;;;;5.95;5.35;;;7.20;99.90;;;;;;4997362;28;20045;-69
2022/03/21 08:18:00;;;;;;;6.15;4.07;;;7.40;99.90;;;;;;5025061;28;20096;-69
2022/03/21 08:20:33;;;;;;;2.22;2.03;;;7.60;99.90;;;;;;5033632;28;20044;-70
2022/03/21 08:22:59;;;;;;;10.18;4.05;;;7.80;99.90;;;;;;5043797;28;20033;-69
2022/03/21 08:25:26;;;;;;;12.88;5.75;;;7.90;99.90;;;;;;5039597;28;20041;-69
2022/03/21 08:27:52;;;;;;;3.30;3.00;;;8.00;99.90;;;;;;5037559;28;20119;-69
2022/03/21 08:30:18;;;;;;;6.82;4.07;;;8.10;99.90;;;;;;5053575;28;20630;-69
2022/03/21 08:32:45;;;;;;;7.25;4.90;;;8.30;99.90;;;;;;5030961;28;20041;-69
2022/03/21 08:35:11;;;;;;;3.63;2.20;;;8.40;99.90;;;;;;5019051;28;20179;-69
2022/03/21 08:37:37;;;;;;;2.95;2.70;;;8.60;99.90;;;;;;5042334;28;20491;-69
2022/03/21 08:40:04;;;;;;;1.77;1.67;;;8.70;99.90;;;;;;5051741;28;20037;-69
2022/03/21 08:42:29;;;;;;;6.28;4.28;;;9.00;99.90;;;;;;5009219;28;20041;-69
2022/03/21 08:44:56;;;;;;;3.75;3.42;;;9.20;99.90;;;;;;5042089;28;20041;-69
2022/03/21 08:47:22;;;;;;;2.58;1.08;;;9.30;99.90;;;;;;5043671;28;20457;-69
2022/03/21 08:49:47;;;;;;;7.93;5.68;;;9.40;99.90;;;;;;5044077;28;20045;-69
2022/03/21 08:52:13;;;;;;;8.27;4.50;;;9.50;99.90;;;;;;5045252;28;20052;-70
2022/03/21 08:54:39;;;;;;;7.00;5.22;;;9.60;99.90;;;;;;5008552;28;20052;-70
2022/03/21 08:57:18;;;;;;;4.10;3.30;;;10.10;99.90;;;;;;4997406;28;20785;-70
2022/03/21 08:59:52;;;;;;;3.80;2.88;;;11.10;99.90;;;;;;4969929;28;20635;-70
2022/03/21 09:02:20;;;;;;;0.40;0.40;;;12.10;99.90;;;;;;4920394;28;20497;-70
2022/03/21 09:04:46;;;;;;;9.65;5.00;;;13.00;99.90;;;;;;4942809;28;20041;-70
2022/03/21 09:07:13;;;;;;;3.20;2.60;;;13.80;99.90;;;;;;4906167;28;20041;-70
2022/03/21 09:09:39;;;;;;;3.65;3.05;;;14.40;99.90;;;;;;5036266;28;20420;-70
2022/03/21 09:12:05;;;;;;;5.40;4.43;;;14.90;99.90;;;;;;5062761;28;20165;-70
2022/03/21 09:14:31;;;;;;;2.92;1.98;;;15.50;99.90;;;;;;5027945;28;20053;-70
2022/03/21 09:16:56;;;;;;;6.75;4.15;;;15.80;99.90;;;;;;5034933;28;20041;-69
2022/03/21 09:19:23;;;;;;;6.20;3.35;;;16.10;99.90;;;;;;5047062;28;20091;-69
2022/03/21 09:21:50;;;;;;;3.55;3.03;;;16.20;94.40;;;;;;5048247;28;20037;-69
2022/03/21 09:24:16;;;;;;;9.85;3.15;;;16.40;97.80;;;;;;5061155;28;20117;-69
2022/03/21 09:26:41;;;;;;;3.92;2.90;;;16.50;99.90;;;;;;5042562;28;20182;-69
2022/03/21 09:29:07;;;;;;;6.72;3.72;;;16.50;99.90;;;;;;5018156;28;20039;-69
2022/03/21 09:31:36;;;;;;;10.77;4.20;;;16.50;98.50;;;;;;5044613;28;20037;-70
2022/03/21 09:34:02;;;;;;;5.63;2.70;;;16.60;91.30;;;;;;5034138;28;20052;-70
2022/03/21 09:36:28;;;;;;;12.23;6.50;;;16.70;85.60;;;;;;5037395;28;20083;-70
2022/03/21 09:38:54;;;;;;;6.50;3.80;;;16.60;92.50;;;;;;5042592;28;20053;-70
2022/03/21 09:41:25;;;;;;;6.07;2.83;;;16.40;93.50;;;;;;5044914;28;20389;-70
2022/03/21 09:43:57;;;;;;;5.85;4.05;;;16.30;89.50;;;;;;5061188;28;20037;-69
2022/03/21 09:46:23;;;;;;;5.93;3.97;;;16.50;88.40;;;;;;5030141;28;20041;-69
2022/03/21 09:48:50;;;;;;;11.00;7.30;;;16.60;92.40;;;;;;5043546;28;20392;-69
2022/03/21 09:51:24;;;;;;;3.40;2.95;;;16.70;87.10;;;;;;5038340;28;20033;-69
2022/03/21 09:53:50;;;;;;;7.57;5.00;;;16.90;82.80;;;;;;5041113;28;20131;-70
2022/03/21 09:56:17;;;;;;;7.78;3.60;;;16.80;84.00;;;;;;5040513;28;20131;-70
2022/03/21 09:58:47;;;;;;;13.35;7.70;;;16.70;80.30;;;;;;4990197;28;21748;-70
2022/03/21 10:01:14;;;;;;;8.75;4.40;;;16.70;77.70;;;;;;4984448;28;20500;-69
2022/03/21 10:03:40;;;;;;;9.82;4.13;;;16.60;83.10;;;;;;4969342;28;20058;-69
2022/03/21 10:06:25;;;;;;;0.82;0.82;;;16.50;75.60;;;;;;4984941;28;20512;-69
2022/03/21 10:09:19;;;;;;;5.97;4.18;;;16.50;78.60;;;;;;5005841;28;20649;-69
2022/03/21 10:11:54;;;;;;;;;;;16.60;78.40;;;;;;4994414;28;20309;-69
2022/03/21 10:14:25;;;;;;;8.23;3.97;;;16.40;72.50;;;;;;4997311;28;20045;-69
2022/03/21 10:17:09;;;;;;;6.03;3.00;;;16.30;70.50;;;;;;4964383;28;20552;-69
2022/03/21 10:19:56;;;;;;;5.82;2.85;;;16.10;64.80;;;;;;4970516;28;20207;-70
2022/03/21 10:22:48;;;;;;;3.78;3.40;;;16.00;62.80;;;;;;4982801;28;20041;-70
2022/03/21 10:25:21;;;;;;;5.32;2.97;;;16.00;64.20;;;;;;4948092;28;20309;-69
2022/03/21 10:27:58;;;;;;;3.65;3.33;;;15.90;62.90;;;;;;4962370;28;20554;-67
2022/03/21 10:30:24;;;;;;;2.63;1.88;;;15.90;61.50;;;;;;4954119;28;20048;-72
2022/03/21 10:32:57;;;;;;;2.85;2.50;;;15.90;62.40;;;;;;4961435;28;20044;-70
2022/03/21 10:35:26;;;;;;;8.25;4.70;;;15.90;64.00;;;;;;5038542;28;20045;-70
2022/03/21 10:37:56;;;;;;;6.57;4.03;;;15.90;68.20;;;;;;5034800;28;20045;-69
2022/03/21 10:40:48;;;;;;;1.75;1.60;;;15.90;62.40;;;;;;5035820;28;20413;-69
2022/03/21 10:43:19;;;;;;;13.55;4.57;;;15.80;65.80;;;;;;5034290;28;20342;-69
2022/03/21 10:45:52;;;;;;;8.77;4.70;;;15.90;64.10;;;;;;5038772;28;20115;-70
2022/03/21 10:48:26;;;;;;;4.20;3.55;;;15.80;59.50;;;;;;5027354;28;20492;-69
2022/03/21 10:50:54;;;;;;;0.93;0.93;;;15.90;59.90;;;;;;5046623;28;20090;-70
2022/03/21 10:53:24;;;;;;;2.10;1.92;;;15.90;58.90;;;;;;5045896;28;20421;-70
2022/03/21 10:55:58;;;;;;;17.75;4.25;;;16.00;60.90;;;;;;5045867;28;20040;-70
2022/03/21 10:58:41;;;;;;;1.67;1.58;;;16.00;60.50;;;;;;5022680;28;20084;-70
2022/03/21 11:01:10;;;;;;;;;;;16.00;57.10;;;;;;5039307;28;20036;-70
2022/03/21 11:03:40;;;;;;;3.67;2.45;;;16.10;58.20;;;;;;5046253;28;20448;-69
2022/03/21 11:06:08;;;;;;;4.38;2.28;;;16.10;57.70;;;;;;5045447;28;20055;-69
2022/03/21 11:08:34;;;;;;;7.57;3.78;;;16.10;56.90;;;;;;5009450;28;20064;-70
2022/03/21 11:11:00;;;;;;;1.45;1.35;;;16.20;60.50;;;;;;5035750;28;20048;-68
2022/03/21 11:13:27;;;;;;;2.53;2.33;;;16.20;60.70;;;;;;5057242;28;20066;-69
2022/03/21 11:15:53;;;;;;;0.77;0.77;;;16.30;62.20;;;;;;5032021;28;20045;-69
2022/03/21 11:18:20;;;;;;;2.35;2.13;;;16.40;60.40;;;;;;5048474;28;20624;-69
2022/03/21 11:20:47;;;;;;;1.95;1.83;;;16.50;57.70;;;;;;5049203;28;20090;-69
2022/03/21 11:23:15;;;;;;;1.85;1.75;;;16.50;58.50;;;;;;5047349;28;20423;-70
2022/03/21 11:25:48;;;;;;;7.97;4.22;;;16.60;59.10;;;;;;5051815;28;20041;-69
2022/03/21 11:28:51;;;;;;;3.65;2.65;;;16.60;57.80;;;;;;5059162;28;20051;-69
2022/03/21 11:31:34;;;;;;;1.92;1.25;;;16.50;57.90;;;;;;5034302;28;20040;-69
2022/03/21 11:34:42;;;;;;;10.57;7.18;;;16.50;57.80;;;;;;5043798;28;20115;-70
2022/03/21 11:37:27;;;;;;;2.55;2.33;;;16.50;58.00;;;;;;5065053;28;20056;-70
2022/03/21 11:40:28;;;;;;;9.88;5.28;;;16.60;58.70;;;;;;5039153;28;20044;-69
2022/03/21 11:43:18;;;;;;;2.00;1.83;;;16.60;57.10;;;;;;5049406;28;20086;-68
2022/03/21 11:45:45;;;;;;;5.40;2.85;;;16.50;57.90;;;;;;5039921;28;20036;-70
2022/03/21 11:48:17;;;;;;;0.22;0.22;;;16.60;58.90;;;;;;5036589;28;20040;-69
2022/03/21 11:50:47;;;;;;;3.05;2.47;;;16.80;54.90;;;;;;5055250;28;20283;-70
2022/03/21 11:53:13;;;;;;;2.97;2.38;;;16.90;56.10;;;;;;5056257;28;20079;-69
2022/03/21 11:55:41;;;;;;;3.20;2.33;;;17.00;55.70;;;;;;5040449;28;20041;-69
2022/03/21 11:58:22;;;;;;;3.80;3.45;;;17.00;56.10;;;;;;5031993;28;20055;-69
2022/03/21 12:01:11;;;;;;;5.60;3.92;;;17.00;56.00;;;;;;5059842;28;20044;-69
2022/03/21 12:03:38;;;;;;;2.47;2.28;;;16.90;54.20;;;;;;5027776;28;20040;-69
2022/03/21 12:06:23;;;;;;;4.35;3.33;;;16.70;55.80;;;;;;5044856;28;20123;-69
2022/03/21 12:08:55;;;;;;;0.32;0.32;;;16.90;56.20;;;;;;5041406;28;20131;-69
2022/03/21 12:11:39;;;;;;;2.42;2.03;;;16.80;53.70;;;;;;5044278;28;20047;-69
2022/03/21 12:14:30;;;;;;;4.93;3.58;;;16.80;56.70;;;;;;5043790;28;20391;-69
2022/03/21 12:17:01;;;;;;;10.02;3.22;;;17.00;55.70;;;;;;5010382;28;20724;-68
2022/03/21 12:19:48;;;;;;;0.30;0.30;;;17.10;56.10;;;;;;5042121;28;20420;-69
2022/03/21 12:22:29;;;;;;;1.90;1.77;;;17.20;56.80;;;;;;5037081;28;21033;-70
2022/03/21 12:25:32;;;;;;;8.98;6.03;;;17.30;56.10;;;;;;4953550;28;21107;-70
2022/03/21 12:31:37;;;;;;;9.32;6.45;;;17.40;54.10;;;;;;4934253;28;20801;-70
2022/03/21 12:34:39;;;;;;;1.92;1.50;;;17.50;55.00;;;;;;4896576;28;20377;-70
2022/03/21 12:37:22;;;;;;;3.63;3.30;;;17.40;51.70;;;;;;4908045;28;20446;-69
2022/03/21 12:39:48;;;;;;;;;;;17.20;52.20;;;;;;4915130;28;20231;-70
2022/03/21 12:42:20;;;;;;;1.38;1.33;;;17.00;52.80;;;;;;4890132;28;19929;-71
2022/03/21 12:48:07;;;;;;;12.80;7.05;;;16.80;50.80;;;;;;4907740;28;20498;-70
2022/03/21 12:50:34;;;;;;;1.70;1.20;;;16.80;53.50;;;;;;4991113;28;20049;-71
2022/03/21 12:53:05;;;;;;;13.00;4.68;;;16.60;52.60;;;;;;4969548;28;20140;-70
2022/03/21 12:55:31;;;;;;;5.15;3.20;;;16.50;54.30;;;;;;5001791;28;20052;-69
2022/03/21 12:58:03;;;;;;;6.53;3.38;;;16.50;53.40;;;;;;4976948;28;20041;-69
2022/03/21 13:00:31;;;;;;;;;;;16.40;52.80;;;;;;4969112;28;20080;-69
2022/03/21 13:03:03;;;;;;;1.77;1.67;;;16.40;51.80;;;;;;4980737;28;20358;-70
2022/03/21 13:11:04;;;;;;;3.55;3.03;;;16.30;51.00;;;;;;5046466;28;20127;-69
2022/03/21 13:13:43;;;;;;;1.27;1.17;;;16.10;51.80;;;;;;5061087;28;20052;-69
2022/03/21 13:16:11;;;;;;;4.40;3.30;;;16.00;51.40;;;;;;5033257;28;20049;-69
2022/03/21 13:18:39;;;;;;;3.10;2.38;;;15.90;51.90;;;;;;5045275;28;20508;-69
2022/03/21 13:21:06;;;;;;;6.45;3.50;;;15.90;51.60;;;;;;5043348;28;20801;-68
2022/03/21 13:23:33;;;;;;;2.35;2.05;;;16.00;52.80;;;;;;5047256;28;20079;-68
2022/03/21 13:26:13;;;;;;;1.63;1.45;;;16.10;52.50;;;;;;5045489;28;20040;-70
2022/03/21 13:28:40;;;;;;;6.70;2.63;;;16.00;52.10;;;;;;5068583;28;20055;-69
2022/03/21 13:31:09;;;;;;;3.85;3.50;;;16.10;52.50;;;;;;5071396;28;20054;-69
2022/03/21 13:33:37;;;;;;;10.13;6.80;;;16.10;50.20;;;;;;5071836;28;20040;-68
2022/03/21 13:36:14;;;;;;;6.75;3.88;;;16.10;52.40;;;;;;5037479;28;20070;-70
2022/03/21 13:38:39;;;;;;;3.22;2.17;;;16.10;51.50;;;;;;5005069;28;20415;-70
2022/03/21 13:41:16;;;;;;;4.55;3.50;;;16.00;51.50;;;;;;5053380;28;20496;-68
2022/03/21 13:43:43;;;;;;;1.45;1.38;;;16.10;53.20;;;;;;5048536;28;20040;-69
2022/03/21 13:46:09;;;;;;;3.17;2.88;;;16.20;51.80;;;;;;5052574;28;20388;-69
2022/03/21 13:48:40;;;;;;;4.47;3.38;;;16.20;50.50;;;;;;5052208;28;20074;-69
2022/03/21 13:51:18;;;;;;;8.07;4.80;;;16.10;51.60;;;;;;5053442;28;20068;-69
2022/03/21 13:53:44;;;;;;;3.65;2.83;;;16.20;52.00;;;;;;5036676;28;20531;-69
2022/03/21 13:56:12;;;;;;;2.33;2.00;;;16.20;52.40;;;;;;5024811;28;20050;-70
2022/03/21 13:58:38;;;;;;;2.10;1.10;;;16.20;51.80;;;;;;5012689;28;20044;-69
2022/03/21 14:01:18;;;;;;;5.07;1.35;;;16.20;50.90;;;;;;5033798;28;20136;-70
2022/03/21 14:03:48;;;;;;;8.77;3.63;;;16.20;52.00;;;;;;5026041;28;20601;-70
2022/03/21 14:06:13;;;;;;;3.38;2.65;;;16.30;52.40;;;;;;4991103;28;20050;-70
2022/03/21 14:08:59;;;;;;;9.43;4.30;;;16.30;52.70;;;;;;4976389;28;20472;-70
2022/03/21 14:14:38;;;;;;;1.40;0.88;;;16.40;52.40;;;;;;4943048;28;20294;-70
2022/03/21 14:17:05;;;;;;;6.68;4.32;;;16.50;52.30;;;;;;4909325;28;20625;-70